| time (UTC) | temp C | wind direction | speed KPH | gust KPH | rain 1hr cm | rain 24hr cm | rain mn cm | humidity % | barometer mb |
| 20260506175402 | 13 | 95 | 4.8 | 11.3 | 0.20 | 0.66 | 0.66 | 90 | 1011.9 |
| 20260506174502 | 13 | 78 | 4.8 | 11.3 | 0.18 | 0.66 | 0.66 | 90 | 1012.1 |
| 20260506173602 | 13 | 52 | 3.2 | 9.7 | 0.00 | 0.48 | 0.48 | 89 | 1012.0 |
| 20260506172702 | 13 | 90 | 4.8 | 16.1 | 0.18 | 0.48 | 0.48 | 89 | 1012.0 |
| 20260506171802 | 13 | 63 | 6.4 | 16.1 | 0.33 | 0.48 | 0.48 | 89 | 1012.1 |
| 20260506170902 | 13 | 74 | 8.0 | 12.9 | 0.46 | 0.48 | 0.48 | 90 | 1012.0 |
| 20260506170023 | 13 | 54 | 8.0 | 14.5 | 0.48 | 0.48 | 0.48 | 89 | 1011.9 |
| 20260506165423 | 14 | 80 | 8.0 | 17.7 | 0.48 | 0.48 | 0.48 | 89 | 1012.0 |
| 20260506164502 | 14 | 71 | 8.0 | 19.3 | 0.48 | 0.48 | 0.48 | 88 | 1012.0 |
| 20260506163623 | 14 | 60 | 6.4 | 14.5 | 0.46 | 0.46 | 0.46 | 87 | 1012.2 |
| 20260506162702 | 15 | 127 | 4.8 | 11.3 | 0.30 | 0.30 | 0.30 | 83 | 1011.8 |
| 20260506161802 | 16 | 299 | 1.6 | 11.3 | 0.15 | 0.15 | 0.15 | 78 | 1011.7 |
| 20260506160902 | 16 | 208 | 4.8 | 16.1 | 0.03 | 0.03 | 0.03 | 71 | 1011.7 |
| 20260506160002 | 16 | 139 | 9.7 | 29.0 | 0.00 | 0.00 | 0.00 | 70 | 1011.4 |
| 20260506155402 | 16 | 124 | 16.1 | 30.6 | 0.00 | 0.00 | 0.00 | 70 | 1011.0 |
| 20260506154503 | 17 | 115 | 14.5 | 30.6 | 0.00 | 0.00 | 0.00 | 67 | 1010.8 |
| 20260506153623 | 17 | 122 | 12.9 | 27.4 | 0.00 | 0.00 | 0.00 | 65 | 1010.8 |
| 20260506152702 | 17 | 124 | 11.3 | 30.6 | 0.00 | 0.00 | 0.00 | 66 | 1010.6 |
| 20260506151803 | 17 | 119 | 12.9 | 30.6 | 0.00 | 0.00 | 0.00 | 66 | 1010.9 |
| 20260506150903 | 16 | 131 | 11.3 | 27.4 | 0.00 | 0.00 | 0.00 | 67 | 1011.1 |
| 20260506150003 | 16 | 113 | 14.5 | 29.0 | 0.00 | 0.00 | 0.00 | 67 | 1011.1 |
| 20260506145424 | 16 | 111 | 12.9 | 29.0 | 0.00 | 0.00 | 0.00 | 67 | 1011.1 |
| 20260506144502 | 17 | 113 | 14.5 | 27.4 | 0.00 | 0.00 | 0.00 | 66 | 1010.9 |
| 20260506143603 | 16 | 113 | 11.3 | 27.4 | 0.00 | 0.00 | 0.00 | 66 | 1011.1 |
| 20260506142703 | 17 | 119 | 12.9 | 27.4 | 0.00 | 0.00 | 0.00 | 63 | 1011.1 |
| 20260506141824 | 17 | 102 | 12.9 | 29.0 | 0.00 | 0.00 | 0.00 | 62 | 1011.2 |
| 20260506140903 | 18 | 117 | 11.3 | 27.4 | 0.00 | 0.00 | 0.00 | 61 | 1011.1 |
| 20260506140003 | 17 | 117 | 17.7 | 32.2 | 0.00 | 0.00 | 0.00 | 61 | 1011.2 |
| 20260506135403 | 17 | 123 | 17.7 | 32.2 | 0.00 | 0.00 | 0.00 | 62 | 1011.2 |
| 20260506134524 | 17 | 105 | 12.9 | 32.2 | 0.00 | 0.00 | 0.00 | 62 | 1011.4 |
| 20260506133603 | 17 | 97 | 12.9 | 32.2 | 0.00 | 0.00 | 0.00 | 61 | 1011.5 |
| 20260506132703 | 17 | 119 | 12.9 | 25.7 | 0.00 | 0.00 | 0.00 | 62 | 1011.4 |
| 20260506131824 | 17 | 112 | 12.9 | 22.5 | 0.00 | 0.00 | 0.00 | 61 | 1011.6 |
| 20260506130903 | 16 | 111 | 11.3 | 20.9 | 0.00 | 0.00 | 0.00 | 63 | 1011.7 |
| 20260506130003 | 16 | 128 | 11.3 | 24.1 | 0.00 | 0.00 | 0.00 | 65 | 1012.0 |
| 20260506125424 | 16 | 116 | 11.3 | 22.5 | 0.00 | 0.00 | 0.00 | 67 | 1011.9 |
| 20260506124503 | 16 | 120 | 9.7 | 22.5 | 0.00 | 0.00 | 0.00 | 66 | 1011.7 |
| 20260506123603 | 16 | 86 | 6.4 | 12.9 | 0.00 | 0.00 | 0.00 | 67 | 1011.8 |
| 20260506122703 | 16 | 59 | 6.4 | 14.5 | 0.00 | 0.00 | 0.00 | 68 | 1012.1 |
| 20260506121803 | 16 | 71 | 8.0 | 22.5 | 0.00 | 0.00 | 0.00 | 69 | 1012.1 |
| 20260506120903 | 16 | 91 | 8.0 | 22.5 | 0.00 | 0.00 | 0.00 | 64 | 1012.2 |
| 20260506120024 | 16 | 85 | 9.7 | 25.7 | 0.00 | 0.00 | 0.00 | 65 | 1011.9 |
| 20260506115403 | 16 | 77 | 8.0 | 20.9 | 0.00 | 0.00 | 0.00 | 64 | 1011.7 |
| 20260506114503 | 15 | 101 | 9.7 | 22.5 | 0.00 | 0.00 | 0.00 | 67 | 1011.9 |
| 20260506113603 | 16 | 118 | 11.3 | 22.5 | 0.00 | 0.00 | 0.00 | 62 | 1011.7 |
| 20260506112724 | 16 | 113 | 8.0 | 19.3 | 0.00 | 0.00 | 0.00 | 62 | 1011.8 |
| 20260506111803 | 16 | 113 | 11.3 | 20.9 | 0.00 | 0.00 | 0.00 | 62 | 1011.8 |
| 20260506110924 | 16 | 88 | 8.0 | 19.3 | 0.00 | 0.00 | 0.00 | 63 | 1011.9 |
| 20260506110003 | 16 | 84 | 8.0 | 17.7 | 0.00 | 0.00 | 0.00 | 67 | 1012.2 |
| 20260506105403 | 15 | 79 | 8.0 | 17.7 | 0.00 | 0.00 | 0.00 | 66 | 1012.2 |
| 20260506104503 | 16 | 86 | 6.4 | 17.7 | 0.00 | 0.00 | 0.00 | 66 | 1012.4 |
| 20260506103624 | 16 | 96 | 8.0 | 19.3 | 0.00 | 0.00 | 0.00 | 66 | 1012.3 |
| 20260506102703 | 16 | 90 | 11.3 | 25.7 | 0.00 | 0.00 | 0.00 | 64 | 1012.6 |
| 20260506101803 | 16 | 81 | 9.7 | 25.7 | 0.00 | 0.00 | 0.00 | 64 | 1012.6 |
| 20260506100924 | 16 | 76 | 9.7 | 22.5 | 0.00 | 0.00 | 0.00 | 63 | 1012.5 |
| 20260506100003 | 16 | 72 | 11.3 | 27.4 | 0.00 | 0.00 | 0.00 | 64 | 1012.6 |
| 20260506095403 | 16 | 64 | 11.3 | 27.4 | 0.00 | 0.00 | 0.00 | 64 | 1012.7 |
| 20260506094503 | 16 | 28 | 8.0 | 17.7 | 0.00 | 0.00 | 0.00 | 66 | 1012.8 |
| 20260506093603 | 16 | 33 | 4.8 | 14.5 | 0.00 | 0.00 | 0.00 | 68 | 1012.7 |
| 20260506092703 | 15 | 64 | 8.0 | 17.7 | 0.00 | 0.00 | 0.00 | 68 | 1012.6 |
| 20260506091824 | 16 | 63 | 9.7 | 17.7 | 0.00 | 0.00 | 0.00 | 68 | 1012.5 |
| 20260506090903 | 16 | 74 | 9.7 | 17.7 | 0.00 | 0.00 | 0.00 | 67 | 1012.4 |
| 20260506090003 | 16 | 65 | 8.0 | 17.7 | 0.00 | 0.00 | 0.00 | 65 | 1012.4 |
| 20260506085403 | 16 | 58 | 8.0 | 16.1 | 0.00 | 0.00 | 0.00 | 64 | 1012.4 |
| 20260506084503 | 16 | 39 | 4.8 | 12.9 | 0.00 | 0.00 | 0.00 | 62 | 1012.3 |
| 20260506083603 | 16 | 282 | 3.2 | 9.7 | 0.00 | 0.00 | 0.00 | 61 | 1012.0 |
| 20260506082701 | 16 | 293 | 3.2 | 9.7 | 0.00 | 0.00 | 0.00 | 63 | 1012.1 |
| 20260506081822 | 16 | 218 | 3.2 | 14.5 | 0.00 | 0.00 | 0.00 | 62 | 1012.2 |
| 20260506080901 | 17 | 262 | 3.2 | 6.4 | 0.00 | 0.00 | 0.00 | 64 | 1012.0 |
| 20260506072701 | 14 | 145 | 3.2 | 6.4 | 0.00 | 0.00 | 0.00 | 73 | 1012.0 |
| 20260506071801 | 13 | 349 | 1.6 | 4.8 | 0.00 | 0.00 | 0.00 | 74 | 1011.9 |
| 20260506070922 | 13 | 157 | 1.6 | 6.4 | 0.00 | 0.00 | 0.00 | 77 | 1011.8 |
| 20260506061801 | 11 | 42 | 3.2 | 8.0 | 0.00 | 0.00 | 0.00 | 86 | 1011.9 |
| 20260506060901 | 11 | 22 | 3.2 | 9.7 | 0.00 | 0.00 | 0.00 | 86 | 1011.8 |
| 20260506050922 | 10 | 157 | 3.2 | 8.0 | 0.00 | 0.00 | 0.00 | 90 | 1011.3 |
| 20260506044501 | 10 | 135 | 3.2 | 9.7 | 0.00 | 0.00 | 0.00 | 89 | 1011.0 |
| 20260506043601 | 10 | 120 | 3.2 | 8.0 | 0.00 | 0.00 | 0.00 | 89 | 1011.0 |
| 20260506042701 | 10 | 158 | 4.8 | 9.7 | 0.00 | 0.00 | 0.00 | 89 | 1010.7 |
| 20260506041801 | 10 | 145 | 4.8 | 9.7 | 0.00 | 0.00 | 0.00 | 89 | 1010.8 |
| 20260506040901 | 10 | 147 | 3.2 | 9.7 | 0.00 | 0.00 | 0.00 | 89 | 1010.9 |
| 20260506040001 | 10 | 149 | 4.8 | 11.3 | 0.00 | 0.00 | 0.00 | 88 | 1010.8 |
| 20260506035401 | 10 | 76 | 4.8 | 11.3 | 0.00 | 0.00 | 0.00 | 88 | 1010.8 |
| 20260506034522 | 10 | 92 | 3.2 | 9.7 | 0.00 | 0.00 | 0.00 | 88 | 1010.8 |
| 20260506033622 | 10 | 158 | 3.2 | 8.0 | 0.00 | 0.00 | 0.00 | 88 | 1010.7 |
| 20260506032722 | 10 | 167 | 3.2 | 11.3 | 0.00 | 0.00 | 0.00 | 88 | 1010.8 |
| 20260506031801 | 10 | 223 | 3.2 | 9.7 | 0.00 | 0.00 | 0.00 | 88 | 1010.6 |
| 20260506030901 | 10 | 166 | 3.2 | 9.7 | 0.00 | 0.00 | 0.00 | 87 | 1010.8 |
| 20260506030002 | 10 | 153 | 6.4 | 12.9 | 0.00 | 0.00 | 0.00 | 87 | 1010.8 |
| 20260506025402 | 10 | 147 | 4.8 | 9.7 | 0.00 | 0.00 | 0.00 | 86 | 1010.8 |
| 20260506024502 | 10 | 144 | 4.8 | 11.3 | 0.00 | 0.00 | 0.00 | 85 | 1010.7 |
| 20260506023602 | 10 | 65 | 4.8 | 9.7 | 0.00 | 0.00 | 0.00 | 85 | 1010.9 |
| 20260506022701 | 10 | 134 | 3.2 | 8.0 | 0.00 | 0.00 | 0.00 | 85 | 1010.5 |
| 20260506021802 | 10 | 130 | 3.2 | 8.0 | 0.00 | 0.00 | 0.00 | 84 | 1010.6 |
| 20260506020902 | 10 | 153 | 3.2 | 8.0 | 0.00 | 0.00 | 0.00 | 84 | 1010.4 |
| 20260506020002 | 10 | 149 | 3.2 | 6.4 | 0.00 | 0.00 | 0.00 | 83 | 1010.4 |
| 20260506015402 | 10 | 141 | 4.8 | 8.0 | 0.00 | 0.00 | 0.00 | 83 | 1010.6 |
| 20260506014502 | 11 | 123 | 3.2 | 8.0 | 0.00 | 0.00 | 0.00 | 81 | 1010.5 |
| 20260506013602 | 11 | 152 | 1.6 | 8.0 | 0.00 | 0.00 | 0.00 | 79 | 1010.5 |
| 20260506012702 | 11 | 119 | 1.6 | 4.8 | 0.00 | 0.00 | 0.00 | 78 | 1010.4 |
| 20260506011802 | 11 | 107 | 0.0 | 3.2 | 0.00 | 0.00 | 0.00 | 78 | 1010.6 |
| 20260506010902 | 11 | 99 | 1.6 | 4.8 | 0.00 | 0.00 | 0.00 | 77 | 1010.4 |
| 20260506010002 | 11 | 142 | 1.6 | 4.8 | 0.00 | 0.00 | 0.00 | 77 | 1010.6 |
| 20260506005423 | 11 | 141 | 0.0 | 4.8 | 0.00 | 0.00 | 0.00 | 77 | 1010.9 |
| 20260506004502 | 11 | 148 | 1.6 | 6.4 | 0.00 | 0.00 | 0.00 | 77 | 1010.8 |
| 20260506003602 | 11 | 135 | 1.6 | 4.8 | 0.00 | 0.00 | 0.00 | 78 | 1010.8 |
| 20260506002702 | 11 | 115 | 1.6 | 4.8 | 0.00 | 0.00 | 0.00 | 78 | 1010.7 |
| 20260506001802 | 11 | 75 | 1.6 | 4.8 | 0.00 | 0.00 | 0.00 | 78 | 1010.4 |
| 20260506000902 | 11 | 82 | 1.6 | 4.8 | 0.00 | 0.00 | 0.00 | 77 | 1010.8 |
| 20260506000002 | 12 | 134 | 1.6 | 3.2 | 0.00 | 0.00 | 0.00 | 78 | 1010.7 |
| 20260505235423 | 11 | 152 | 1.6 | 4.8 | 0.00 | 0.00 | 0.00 | 78 | 1011.0 |
| 20260505234502 | 11 | 139 | 3.2 | 8.0 | 0.00 | 0.00 | 0.00 | 79 | 1011.3 |
| 20260505233602 | 11 | 120 | 3.2 | 6.4 | 0.00 | 0.00 | 0.00 | 80 | 1011.4 |
| 20260505232702 | 11 | 132 | 3.2 | 6.4 | 0.00 | 0.00 | 0.00 | 81 | 1011.4 |
| 20260505231802 | 11 | 151 | 1.6 | 4.8 | 0.00 | 0.00 | 0.00 | 80 | 1011.6 |
| 20260505230902 | 11 | 121 | 1.6 | 4.8 | 0.00 | 0.00 | 0.00 | 80 | 1011.4 |
| 20260505230002 | 11 | 120 | 1.6 | 6.4 | 0.00 | 0.00 | 0.00 | 81 | 1011.5 |
| 20260505225423 | 11 | 134 | 3.2 | 6.4 | 0.00 | 0.00 | 0.00 | 81 | 1011.4 |
| 20260505224502 | 11 | 107 | 3.2 | 4.8 | 0.00 | 0.00 | 0.00 | 81 | 1011.4 |
| 20260505223623 | 12 | 90 | 1.6 | 3.2 | 0.00 | 0.00 | 0.00 | 80 | 1011.6 |
| 20260505222702 | 12 | 207 | 0.0 | 3.2 | 0.00 | 0.00 | 0.00 | 80 | 1011.4 |
| 20260505221802 | 12 | 215 | 1.6 | 6.4 | 0.00 | 0.00 | 0.00 | 79 | 1011.6 |
| 20260505220902 | 12 | 170 | 1.6 | 6.4 | 0.00 | 0.00 | 0.00 | 78 | 1011.7 |
| 20260505220003 | 13 | 2 | 1.6 | 6.4 | 0.00 | 0.00 | 0.00 | 76 | 1011.8 |
| 20260505215402 | 13 | 2 | 1.6 | 6.4 | 0.00 | 0.00 | 0.00 | 76 | 1011.5 |
| 20260505214502 | 13 | 351 | 3.2 | 12.9 | 0.00 | 0.00 | 0.00 | 75 | 1011.7 |
| 20260505213602 | 13 | 2 | 4.8 | 12.9 | 0.00 | 0.00 | 0.00 | 77 | 1011.7 |
| 20260505212702 | 13 | 359 | 3.2 | 6.4 | 0.00 | 0.00 | 0.00 | 77 | 1011.8 |
| 20260505211802 | 13 | 326 | 3.2 | 8.0 | 0.00 | 0.00 | 0.00 | 76 | 1012.0 |
| 20260505210923 | 13 | 340 | 3.2 | 8.0 | 0.00 | 0.00 | 0.00 | 76 | 1011.9 |
| 20260505210002 | 13 | 327 | 3.2 | 9.7 | 0.00 | 0.00 | 0.00 | 76 | 1011.7 |
| 20260505205402 | 13 | 351 | 4.8 | 9.7 | 0.00 | 0.00 | 0.00 | 75 | 1011.5 |
| 20260505204502 | 13 | 344 | 8.0 | 14.5 | 0.00 | 0.00 | 0.00 | 76 | 1011.8 |
| 20260505203602 | 13 | 352 | 8.0 | 20.9 | 0.00 | 0.00 | 0.00 | 75 | 1011.7 |
| 20260505202702 | 13 | 2 | 9.7 | 20.9 | 0.00 | 0.00 | 0.00 | 75 | 1011.5 |
| 20260505201802 | 13 | 10 | 11.3 | 20.9 | 0.00 | 0.00 | 0.00 | 77 | 1011.7 |
| 20260505200902 | 13 | 25 | 9.7 | 20.9 | 0.00 | 0.00 | 0.00 | 79 | 1011.4 |
| 20260505200002 | 13 | 12 | 11.3 | 24.1 | 0.00 | 0.00 | 0.00 | 80 | 1011.4 |
| 20260505195402 | 13 | 354 | 12.9 | 30.6 | 0.00 | 0.00 | 0.00 | 78 | 1011.4 |
| 20260505194502 | 13 | 357 | 14.5 | 33.8 | 0.00 | 0.00 | 0.00 | 74 | 1011.1 |
| 20260505193602 | 14 | 333 | 9.7 | 27.4 | 0.00 | 0.00 | 0.00 | 75 | 1011.2 |
| 20260505192702 | 15 | 322 | 8.0 | 24.1 | 0.00 | 0.00 | 0.00 | 77 | 1010.9 |
| 20260505191802 | 16 | 334 | 3.2 | 6.4 | 0.00 | 0.00 | 0.00 | 86 | 1010.4 |
| 20260505190902 | 16 | 22 | 3.2 | 6.4 | 0.00 | 0.00 | 0.00 | 86 | 1010.1 |
| 20260505190003 | 16 | 101 | 3.2 | 6.4 | 0.00 | 0.00 | 0.00 | 85 | 1009.7 |
| 20260505185402 | 16 | 116 | 3.2 | 9.7 | 0.00 | 0.00 | 0.00 | 85 | 1009.9 |
| 20260505184502 | 16 | 121 | 4.8 | 9.7 | 0.00 | 0.00 | 0.00 | 85 | 1009.8 |
| 20260505183602 | 16 | 124 | 4.8 | 11.3 | 0.00 | 0.03 | 0.00 | 84 | 1009.7 |
| 20260505182702 | 16 | 114 | 4.8 | 9.7 | 0.00 | 0.05 | 0.00 | 84 | 1009.8 |
| 20260505181802 | 16 | 105 | 4.8 | 8.0 | 0.00 | 0.05 | 0.00 | 83 | 1010.1 |
| 20260505180902 | 16 | 90 | 3.2 | 11.3 | 0.00 | 0.05 | 0.00 | 83 | 1010.1 |
| 20260505180023 | 16 | 108 | 4.8 | 11.3 | 0.00 | 0.08 | 0.00 | 83 | 1009.9 |